Carnes, Iowa
Current Conditions -  °F | °C
As of 10:55 PM on Friday 28 Nov 2014 (Local Time) from KORC Reporting Station
Clear Clear  
Wind Chill: 21°   Ceiling: Unl
Heat Index: 28°   Visibility: 7mi
Dew Point: 25°   Wind: 7mph
Humidity: 86%   Direction: 100°E
Pressure: 29.57"   Gusts: NA
Location:  42.9504°N, 96.034°W
Report Text: KORC 290455Z AUTO 10006KT 7SM CLR M02/M04 A2957 RMK AO2
Loading
Personal Weather Stations






























Interactive Weather Map New forecast layout! Learn more

10-Day Weather Forecast

Advertisements
Track Severe Weather on mobile